sensor_id;sensor_type;location;lat;lon;timestamp;pressure;altitude;pressure_sealevel;temperature;humidity
22206;BME280;11272;50.104;8.754;2022-11-20T00:00:03;100277.47;;;3.74;98.61
22206;BME280;11272;50.104;8.754;2022-11-20T00:02:32;100274.81;;;3.69;98.90
22206;BME280;11272;50.104;8.754;2022-11-20T00:04:57;100270.44;;;3.65;98.42
22206;BME280;11272;50.104;8.754;2022-11-20T00:07:23;100270.44;;;3.65;98.73
22206;BME280;11272;50.104;8.754;2022-11-20T00:09:48;100271.31;;;3.66;98.75
22206;BME280;11272;50.104;8.754;2022-11-20T00:12:14;100267.84;;;3.67;98.50
22206;BME280;11272;50.104;8.754;2022-11-20T00:14:40;100270.44;;;3.64;98.44
22206;BME280;11272;50.104;8.754;2022-11-20T00:17:07;100266.06;;;3.63;98.46
22206;BME280;11272;50.104;8.754;2022-11-20T00:19:33;100269.56;;;3.62;98.52
22206;BME280;11272;50.104;8.754;2022-11-20T00:21:58;100266.91;;;3.63;98.90
22206;BME280;11272;50.104;8.754;2022-11-20T00:24:24;100270.44;;;3.64;98.60
22206;BME280;11272;50.104;8.754;2022-11-20T00:26:49;100270.44;;;3.62;98.63
22206;BME280;11272;50.104;8.754;2022-11-20T00:29:15;100280.94;;;3.61;98.53
22206;BME280;11272;50.104;8.754;2022-11-20T00:31:40;100278.28;;;3.56;98.38
22206;BME280;11272;50.104;8.754;2022-11-20T00:34:06;100266.94;;;3.57;98.45
22206;BME280;11272;50.104;8.754;2022-11-20T00:36:33;100266.03;;;3.60;98.80
22206;BME280;11272;50.104;8.754;2022-11-20T00:38:59;100267.81;;;3.62;99.13
22206;BME280;11272;50.104;8.754;2022-11-20T00:41:26;100269.56;;;3.65;99.02
22206;BME280;11272;50.104;8.754;2022-11-20T00:43:53;100258.19;;;3.66;98.61
22206;BME280;11272;50.104;8.754;2022-11-20T00:46:23;100261.72;;;3.68;98.42
22206;BME280;11272;50.104;8.754;2022-11-20T00:48:49;100260.81;;;3.69;98.70
22206;BME280;11272;50.104;8.754;2022-11-20T00:51:17;100255.56;;;3.70;98.42
22206;BME280;11272;50.104;8.754;2022-11-20T00:53:43;100256.47;;;3.72;98.68
22206;BME280;11272;50.104;8.754;2022-11-20T00:56:15;100240.72;;;3.72;98.57
22206;BME280;11272;50.104;8.754;2022-11-20T00:58:44;100239.81;;;3.69;98.09
22206;BME280;11272;50.104;8.754;2022-11-20T01:03:39;100250.31;;;3.69;98.50
22206;BME280;11272;50.104;8.754;2022-11-20T01:06:14;100250.34;;;3.67;98.37
22206;BME280;11272;50.104;8.754;2022-11-20T01:08:41;100251.19;;;3.65;97.70
22206;BME280;11272;50.104;8.754;2022-11-20T01:11:12;100249.41;;;3.64;98.11
22206;BME280;11272;50.104;8.754;2022-11-20T01:13:39;100243.31;;;3.62;98.00
22206;BME280;11272;50.104;8.754;2022-11-20T01:16:19;100262.56;;;3.64;97.86
22206;BME280;11272;50.104;8.754;2022-11-20T01:18:46;100259.06;;;3.62;98.14
22206;BME280;11272;50.104;8.754;2022-11-20T01:21:20;100252.06;;;3.61;97.83
22206;BME280;11272;50.104;8.754;2022-11-20T01:23:50;100244.19;;;3.61;98.02
22206;BME280;11272;50.104;8.754;2022-11-20T01:26:20;100244.19;;;3.58;97.83
22206;BME280;11272;50.104;8.754;2022-11-20T01:28:46;100247.66;;;3.58;97.52
22206;BME280;11272;50.104;8.754;2022-11-20T01:31:18;100239.78;;;3.60;97.67
22206;BME280;11272;50.104;8.754;2022-11-20T01:33:46;100248.53;;;3.59;97.94
22206;BME280;11272;50.104;8.754;2022-11-20T01:36:12;100240.66;;;3.59;97.41
22206;BME280;11272;50.104;8.754;2022-11-20T01:38:39;100248.53;;;3.59;97.96
22206;BME280;11272;50.104;8.754;2022-11-20T01:41:05;100246.81;;;3.58;97.30
22206;BME280;11272;50.104;8.754;2022-11-20T01:43:31;100242.38;;;3.54;97.19
22206;BME280;11272;50.104;8.754;2022-11-20T01:48:23;100239.75;;;3.48;97.34
22206;BME280;11272;50.104;8.754;2022-11-20T01:50:51;100237.97;;;3.44;97.25
22206;BME280;11272;50.104;8.754;2022-11-20T01:53:21;100237.13;;;3.42;97.33
22206;BME280;11272;50.104;8.754;2022-11-20T01:55:52;100236.22;;;3.43;97.11
22206;BME280;11272;50.104;8.754;2022-11-20T01:58:28;100230.09;;;3.44;97.71
22206;BME280;11272;50.104;8.754;2022-11-20T02:00:55;100227.47;;;3.44;97.28
22206;BME280;11272;50.104;8.754;2022-11-20T02:03:21;100229.25;;;3.42;97.60
22206;BME280;11272;50.104;8.754;2022-11-20T02:06:13;100237.09;;;3.40;97.05
22206;BME280;11272;50.104;8.754;2022-11-20T02:08:40;100231.84;;;3.38;97.09
22206;BME280;11272;50.104;8.754;2022-11-20T02:11:06;100237.97;;;3.39;97.20
22206;BME280;11272;50.104;8.754;2022-11-20T02:13:33;100231.84;;;3.38;97.70
22206;BME280;11272;50.104;8.754;2022-11-20T02:18:36;100221.38;;;3.42;97.84
22206;BME280;11272;50.104;8.754;2022-11-20T02:21:07;100222.22;;;3.39;97.58
22206;BME280;11272;50.104;8.754;2022-11-20T02:24:10;100231.81;;;3.34;96.81
22206;BME280;11272;50.104;8.754;2022-11-20T02:27:00;100237.03;;;3.28;96.68
22206;BME280;11272;50.104;8.754;2022-11-20T02:32:20;100222.19;;;3.33;97.97
22206;BME280;11272;50.104;8.754;2022-11-20T02:34:46;100220.47;;;3.35;98.22
22206;BME280;11272;50.104;8.754;2022-11-20T02:37:12;100216.97;;;3.34;97.79
22206;BME280;11272;50.104;8.754;2022-11-20T02:39:38;100214.31;;;3.33;97.51
22206;BME280;11272;50.104;8.754;2022-11-20T02:42:03;100218.69;;;3.32;97.78
22206;BME280;11272;50.104;8.754;2022-11-20T02:44:29;100215.19;;;3.33;98.09
22206;BME280;11272;50.104;8.754;2022-11-20T02:46:57;100215.19;;;3.30;97.67
22206;BME280;11272;50.104;8.754;2022-11-20T02:49:24;100202.09;;;3.30;97.27
22206;BME280;11272;50.104;8.754;2022-11-20T02:51:49;100214.31;;;3.30;97.26
22206;BME280;11272;50.104;8.754;2022-11-20T02:54:15;100210.81;;;3.29;97.85
22206;BME280;11272;50.104;8.754;2022-11-20T02:56:41;100218.69;;;3.32;97.82
22206;BME280;11272;50.104;8.754;2022-11-20T02:59:07;100214.34;;;3.34;97.73
22206;BME280;11272;50.104;8.754;2022-11-20T03:01:32;100228.31;;;3.33;97.93
22206;BME280;11272;50.104;8.754;2022-11-20T03:03:58;100225.69;;;3.33;97.75
22206;BME280;11272;50.104;8.754;2022-11-20T03:06:23;100234.47;;;3.35;98.29
22206;BME280;11272;50.104;8.754;2022-11-20T03:08:49;100232.69;;;3.37;97.85
22206;BME280;11272;50.104;8.754;2022-11-20T03:11:15;100225.72;;;3.36;98.19
22206;BME280;11272;50.104;8.754;2022-11-20T03:13:40;100220.47;;;3.35;97.92
22206;BME280;11272;50.104;8.754;2022-11-20T03:16:10;100223.97;;;3.35;97.94
22206;BME280;11272;50.104;8.754;2022-11-20T03:18:37;100214.34;;;3.34;98.13
22206;BME280;11272;50.104;8.754;2022-11-20T03:21:03;100210.81;;;3.32;97.86
22206;BME280;11272;50.104;8.754;2022-11-20T03:23:30;100203.81;;;3.33;98.34
22206;BME280;11272;50.104;8.754;2022-11-20T03:26:14;100195.09;;;3.34;97.90
22206;BME280;11272;50.104;8.754;2022-11-20T03:28:41;100206.47;;;3.34;98.56
22206;BME280;11272;50.104;8.754;2022-11-20T03:31:12;100202.09;;;3.35;98.38
22206;BME280;11272;50.104;8.754;2022-11-20T03:33:39;100209.94;;;3.33;97.80
22206;BME280;11272;50.104;8.754;2022-11-20T03:36:07;100216.06;;;3.32;97.82
22206;BME280;11272;50.104;8.754;2022-11-20T03:38:33;100221.34;;;3.31;97.42
22206;BME280;11272;50.104;8.754;2022-11-20T03:41:03;100208.19;;;3.29;97.81
22206;BME280;11272;50.104;8.754;2022-11-20T03:43:29;100217.81;;;3.29;98.10
22206;BME280;11272;50.104;8.754;2022-11-20T03:45:55;100216.94;;;3.28;97.83
22206;BME280;11272;50.104;8.754;2022-11-20T03:48:21;100210.78;;;3.26;97.79
22206;BME280;11272;50.104;8.754;2022-11-20T03:50:46;100211.66;;;3.24;98.08
22206;BME280;11272;50.104;8.754;2022-11-20T03:53:16;100220.41;;;3.23;97.97
22206;BME280;11272;50.104;8.754;2022-11-20T03:55:41;100218.69;;;3.25;98.34
22206;BME280;11272;50.104;8.754;2022-11-20T03:58:08;100211.69;;;3.25;98.26
22206;BME280;11272;50.104;8.754;2022-11-20T04:00:33;100209.03;;;3.27;98.24
22206;BME280;11272;50.104;8.754;2022-11-20T04:03:02;100202.03;;;3.26;98.28
22206;BME280;11272;50.104;8.754;2022-11-20T04:05:28;100214.31;;;3.28;98.58
22206;BME280;11272;50.104;8.754;2022-11-20T04:07:54;100205.56;;;3.28;98.33
22206;BME280;11272;50.104;8.754;2022-11-20T04:10:19;100187.19;;;3.26;98.42
22206;BME280;11272;50.104;8.754;2022-11-20T04:12:45;100181.91;;;3.22;98.00
22206;BME280;11272;50.104;8.754;2022-11-20T04:15:10;100188.91;;;3.18;98.04
22206;BME280;11272;50.104;8.754;2022-11-20T04:17:36;100206.38;;;3.16;98.16
22206;BME280;11272;50.104;8.754;2022-11-20T04:20:03;100219.44;;;3.10;97.64
22206;BME280;11272;50.104;8.754;2022-11-20T04:22:28;100201.91;;;3.00;97.80
22206;BME280;11272;50.104;8.754;2022-11-20T04:24:54;100197.53;;;2.96;98.19
22206;BME280;11272;50.104;8.754;2022-11-20T04:27:19;100201.03;;;3.00;98.63
22206;BME280;11272;50.104;8.754;2022-11-20T04:29:45;100195.81;;;3.03;98.74
22206;BME280;11272;50.104;8.754;2022-11-20T04:32:11;100193.22;;;3.07;98.98
22206;BME280;11272;50.104;8.754;2022-11-20T04:34:36;100182.72;;;3.07;99.14
22206;BME280;11272;50.104;8.754;2022-11-20T04:37:02;100185.34;;;3.07;98.73
22206;BME280;11272;50.104;8.754;2022-11-20T04:39:28;100194.13;;;3.09;98.86
22206;BME280;11272;50.104;8.754;2022-11-20T04:41:53;100197.63;;;3.10;98.89
22206;BME280;11272;50.104;8.754;2022-11-20T04:44:39;100193.25;;;3.12;98.79
22206;BME280;11272;50.104;8.754;2022-11-20T04:47:04;100190.63;;;3.13;99.38
22206;BME280;11272;50.104;8.754;2022-11-20T04:49:30;100186.28;;;3.14;99.03
22206;BME280;11272;50.104;8.754;2022-11-20T04:51:57;100190.63;;;3.16;99.36
22206;BME280;11272;50.104;8.754;2022-11-20T04:54:22;100184.50;;;3.16;99.02
22206;BME280;11272;50.104;8.754;2022-11-20T04:56:49;100179.28;;;3.14;98.86
22206;BME280;11272;50.104;8.754;2022-11-20T04:59:14;100188.88;;;3.14;98.89
22206;BME280;11272;50.104;8.754;2022-11-20T05:01:40;100176.66;;;3.14;98.99
22206;BME280;11272;50.104;8.754;2022-11-20T05:04:06;100172.28;;;3.13;98.71
22206;BME280;11272;50.104;8.754;2022-11-20T05:06:31;100173.13;;;3.12;99.25
22206;BME280;11272;50.104;8.754;2022-11-20T05:08:58;100171.41;;;3.14;99.22
22206;BME280;11272;50.104;8.754;2022-11-20T05:11:23;100177.53;;;3.13;98.99
22206;BME280;11272;50.104;8.754;2022-11-20T05:13:50;100167.91;;;3.09;99.17
22206;BME280;11272;50.104;8.754;2022-11-20T05:16:21;100171.38;;;3.11;99.49
22206;BME280;11272;50.104;8.754;2022-11-20T05:18:48;100168.78;;;3.13;99.70
22206;BME280;11272;50.104;8.754;2022-11-20T05:21:14;100171.41;;;3.14;99.45
22206;BME280;11272;50.104;8.754;2022-11-20T05:23:41;100174.03;;;3.14;99.48
22206;BME280;11272;50.104;8.754;2022-11-20T05:26:11;100170.53;;;3.14;99.27
22206;BME280;11272;50.104;8.754;2022-11-20T05:28:37;100173.13;;;3.12;99.03
22206;BME280;11272;50.104;8.754;2022-11-20T05:31:13;100168.75;;;3.07;99.01
22206;BME280;11272;50.104;8.754;2022-11-20T05:33:40;100169.63;;;3.04;99.10
22206;BME280;11272;50.104;8.754;2022-11-20T05:36:06;100166.13;;;3.08;99.94
22206;BME280;11272;50.104;8.754;2022-11-20T05:38:32;100164.38;;;3.10;100.00
22206;BME280;11272;50.104;8.754;2022-11-20T05:41:06;100167.03;;;3.15;100.00
22206;BME280;11272;50.104;8.754;2022-11-20T05:43:35;100163.53;;;3.16;100.00
22206;BME280;11272;50.104;8.754;2022-11-20T05:46:02;100168.78;;;3.14;99.30
22206;BME280;11272;50.104;8.754;2022-11-20T05:48:28;100167.03;;;3.13;99.77
22206;BME280;11272;50.104;8.754;2022-11-20T05:50:54;100168.78;;;3.14;99.78
22206;BME280;11272;50.104;8.754;2022-11-20T05:53:19;100184.53;;;3.19;99.86
22206;BME280;11272;50.104;8.754;2022-11-20T05:55:45;100175.81;;;3.20;99.95
22206;BME280;11272;50.104;8.754;2022-11-20T05:58:10;100176.69;;;3.20;100.00
22206;BME280;11272;50.104;8.754;2022-11-20T06:00:36;100169.69;;;3.19;99.67
22206;BME280;11272;50.104;8.754;2022-11-20T06:03:02;100171.44;;;3.20;99.62
22206;BME280;11272;50.104;8.754;2022-11-20T06:05:27;100167.06;;;3.22;100.00
22206;BME280;11272;50.104;8.754;2022-11-20T06:07:53;100157.47;;;3.24;99.99
22206;BME280;11272;50.104;8.754;2022-11-20T06:10:18;100155.72;;;3.29;100.00
22206;BME280;11272;50.104;8.754;2022-11-20T06:12:43;100161.84;;;3.33;100.00
22206;BME280;11272;50.104;8.754;2022-11-20T06:15:09;100166.25;;;3.35;100.00
22206;BME280;11272;50.104;8.754;2022-11-20T06:17:35;100164.47;;;3.37;100.00
22206;BME280;11272;50.104;8.754;2022-11-20T06:20:00;100163.63;;;3.38;100.00
22206;BME280;11272;50.104;8.754;2022-11-20T06:22:26;100169.75;;;3.41;100.00
22206;BME280;11272;50.104;8.754;2022-11-20T06:24:51;100176.75;;;3.42;100.00
22206;BME280;11272;50.104;8.754;2022-11-20T06:27:17;100174.13;;;3.43;100.00
22206;BME280;11272;50.104;8.754;2022-11-20T06:29:43;100175.03;;;3.47;100.00
22206;BME280;11272;50.104;8.754;2022-11-20T06:32:09;100176.75;;;3.48;100.00
22206;BME280;11272;50.104;8.754;2022-11-20T06:34:34;100167.13;;;3.48;99.99
22206;BME280;11272;50.104;8.754;2022-11-20T06:37:00;100164.53;;;3.47;99.73
22206;BME280;11272;50.104;8.754;2022-11-20T06:39:25;100163.63;;;3.42;99.51
22206;BME280;11272;50.104;8.754;2022-11-20T06:41:51;100164.50;;;3.39;99.52
22206;BME280;11272;50.104;8.754;2022-11-20T06:44:16;100174.97;;;3.37;99.96
22206;BME280;11272;50.104;8.754;2022-11-20T06:46:42;100172.34;;;3.37;100.00
22206;BME280;11272;50.104;8.754;2022-11-20T06:49:07;100174.97;;;3.37;100.00
22206;BME280;11272;50.104;8.754;2022-11-20T06:51:32;100175.88;;;3.39;100.00
22206;BME280;11272;50.104;8.754;2022-11-20T06:53:58;100174.97;;;3.37;99.91
22206;BME280;11272;50.104;8.754;2022-11-20T06:56:23;100188.09;;;3.39;99.53
22206;BME280;11272;50.104;8.754;2022-11-20T06:58:49;100193.34;;;3.39;99.69
22206;BME280;11272;50.104;8.754;2022-11-20T07:01:15;100191.63;;;3.41;99.47
22206;BME280;11272;50.104;8.754;2022-11-20T07:03:41;100182.84;;;3.39;99.39
22206;BME280;11272;50.104;8.754;2022-11-20T07:06:07;100181.09;;;3.38;99.83
22206;BME280;11272;50.104;8.754;2022-11-20T07:08:32;100173.25;;;3.36;99.67
22206;BME280;11272;50.104;8.754;2022-11-20T07:11:04;100178.47;;;3.38;99.53
22206;BME280;11272;50.104;8.754;2022-11-20T07:13:30;100175.84;;;3.38;99.87
22206;BME280;11272;50.104;8.754;2022-11-20T07:16:01;100175.00;;;3.36;99.74
22206;BME280;11272;50.104;8.754;2022-11-20T07:18:27;100173.25;;;3.36;99.73
22206;BME280;11272;50.104;8.754;2022-11-20T07:20:52;100175.84;;;3.35;99.39
22206;BME280;11272;50.104;8.754;2022-11-20T07:33:58;100181.06;;;3.24;99.19
22206;BME280;11272;50.104;8.754;2022-11-20T07:36:24;100172.28;;;3.21;98.84
22206;BME280;11272;50.104;8.754;2022-11-20T07:38:49;100176.66;;;3.17;98.99
22206;BME280;11272;50.104;8.754;2022-11-20T07:41:15;100178.38;;;3.12;99.08
22206;BME280;11272;50.104;8.754;2022-11-20T07:46:22;100169.66;;;3.13;99.30
22206;BME280;11272;50.104;8.754;2022-11-20T07:51:29;100171.41;;;3.16;99.64
22206;BME280;11272;50.104;8.754;2022-11-20T07:59:18;100176.66;;;3.17;99.30
22206;BME280;11272;50.104;8.754;2022-11-20T08:01:44;100182.78;;;3.21;100.00
22206;BME280;11272;50.104;8.754;2022-11-20T08:04:10;100181.94;;;3.25;100.00
22206;BME280;11272;50.104;8.754;2022-11-20T08:06:36;100195.97;;;3.30;99.68
22206;BME280;11272;50.104;8.754;2022-11-20T08:09:02;100197.69;;;3.32;99.75
22206;BME280;11272;50.104;8.754;2022-11-20T08:11:28;100192.47;;;3.35;100.00
22206;BME280;11272;50.104;8.754;2022-11-20T08:14:13;100200.34;;;3.38;100.00
22206;BME280;11272;50.104;8.754;2022-11-20T08:16:46;100203.88;;;3.45;100.00
22206;BME280;11272;50.104;8.754;2022-11-20T08:19:13;100203.88;;;3.48;99.84
22206;BME280;11272;50.104;8.754;2022-11-20T08:21:39;100205.66;;;3.52;99.94
22206;BME280;11272;50.104;8.754;2022-11-20T08:24:06;100208.28;;;3.57;100.00
22206;BME280;11272;50.104;8.754;2022-11-20T08:26:31;100215.31;;;3.58;100.00
22206;BME280;11272;50.104;8.754;2022-11-20T08:28:57;100208.28;;;3.60;100.00
22206;BME280;11272;50.104;8.754;2022-11-20T08:31:24;100206.56;;;3.60;100.00
22206;BME280;11272;50.104;8.754;2022-11-20T08:33:51;100198.66;;;3.63;100.00
22206;BME280;11272;50.104;8.754;2022-11-20T08:36:17;100208.34;;;3.67;100.00
22206;BME280;11272;50.104;8.754;2022-11-20T08:38:50;100218.81;;;3.70;100.00
22206;BME280;11272;50.104;8.754;2022-11-20T08:41:15;100217.06;;;3.74;100.00
22206;BME280;11272;50.104;8.754;2022-11-20T08:43:58;100223.22;;;3.73;100.00
22206;BME280;11272;50.104;8.754;2022-11-20T08:46:26;100224.06;;;3.70;100.00
22206;BME280;11272;50.104;8.754;2022-11-20T08:48:53;100224.97;;;3.71;100.00
22206;BME280;11272;50.104;8.754;2022-11-20T08:51:19;100214.47;;;3.77;100.00
22206;BME280;11272;50.104;8.754;2022-11-20T08:53:46;100227.63;;;3.86;100.00
22206;BME280;11272;50.104;8.754;2022-11-20T08:56:14;100234.63;;;3.87;100.00
22206;BME280;11272;50.104;8.754;2022-11-20T08:58:40;100232.88;;;3.92;100.00
22206;BME280;11272;50.104;8.754;2022-11-20T09:01:09;100236.41;;;3.99;100.00
22206;BME280;11272;50.104;8.754;2022-11-20T09:03:34;100233.78;;;4.02;100.00
22206;BME280;11272;50.104;8.754;2022-11-20T09:06:02;100225.03;;;4.03;100.00
22206;BME280;11272;50.104;8.754;2022-11-20T09:08:28;100220.63;;;4.06;100.00
22206;BME280;11272;50.104;8.754;2022-11-20T09:10:55;100225.91;;;4.09;100.00
22206;BME280;11272;50.104;8.754;2022-11-20T09:13:22;100221.53;;;4.13;100.00
22206;BME280;11272;50.104;8.754;2022-11-20T09:15:53;100222.44;;;4.16;100.00
22206;BME280;11272;50.104;8.754;2022-11-20T09:18:20;100228.53;;;4.23;100.00
22206;BME280;11272;50.104;8.754;2022-11-20T09:20:46;100227.69;;;4.26;100.00
22206;BME280;11272;50.104;8.754;2022-11-20T09:23:12;100222.41;;;4.33;100.00
22206;BME280;11272;50.104;8.754;2022-11-20T09:25:38;100229.44;;;4.45;100.00
22206;BME280;11272;50.104;8.754;2022-11-20T09:28:04;100227.66;;;4.54;100.00
22206;BME280;11272;50.104;8.754;2022-11-20T09:30:30;100224.16;;;4.69;100.00
22206;BME280;11272;50.104;8.754;2022-11-20T09:32:56;100229.41;;;4.84;100.00
22206;BME280;11272;50.104;8.754;2022-11-20T09:35:22;100232.00;;;4.93;100.00
22206;BME280;11272;50.104;8.754;2022-11-20T09:37:48;100235.50;;;4.97;100.00
22206;BME280;11272;50.104;8.754;2022-11-20T09:45:47;100221.41;;;5.19;100.00
22206;BME280;11272;50.104;8.754;2022-11-20T09:48:22;100222.31;;;5.18;100.00
22206;BME280;11272;50.104;8.754;2022-11-20T09:54:00;100216.09;;;5.36;100.00
22206;BME280;11272;50.104;8.754;2022-11-20T09:56:39;100209.91;;;5.49;100.00
22206;BME280;11272;50.104;8.754;2022-11-20T09:59:07;100208.09;;;5.60;100.00
22206;BME280;11272;50.104;8.754;2022-11-20T10:01:37;100208.03;;;5.68;100.00
22206;BME280;11272;50.104;8.754;2022-11-20T10:07:16;100209.75;;;5.79;100.00
22206;BME280;11272;50.104;8.754;2022-11-20T10:09:51;100197.47;;;5.75;100.00
22206;BME280;11272;50.104;8.754;2022-11-20T10:15:41;100190.38;;;5.86;100.00
22206;BME280;11272;50.104;8.754;2022-11-20T10:20:46;100196.56;;;5.79;100.00
22206;BME280;11272;50.104;8.754;2022-11-20T10:29:01;100192.25;;;5.69;100.00
22206;BME280;11272;50.104;8.754;2022-11-20T10:31:35;100188.72;;;5.67;100.00
22206;BME280;11272;50.104;8.754;2022-11-20T10:34:38;100200.16;;;5.65;100.00
22206;BME280;11272;50.104;8.754;2022-11-20T10:37:16;100192.25;;;5.65;100.00
22206;BME280;11272;50.104;8.754;2022-11-20T10:42:14;100194.03;;;5.64;100.00
22206;BME280;11272;50.104;8.754;2022-11-20T10:44:47;100197.53;;;5.63;100.00
22206;BME280;11272;50.104;8.754;2022-11-20T10:47:27;100188.75;;;5.63;100.00
22206;BME280;11272;50.104;8.754;2022-11-20T10:49:55;100192.28;;;5.60;100.00
22206;BME280;11272;50.104;8.754;2022-11-20T11:00:23;100180.00;;;5.59;100.00
22206;BME280;11272;50.104;8.754;2022-11-20T11:02:51;100176.50;;;5.60;100.00
22206;BME280;11272;50.104;8.754;2022-11-20T11:07:46;100165.09;;;5.58;100.00
22206;BME280;11272;50.104;8.754;2022-11-20T11:10:24;100158.97;;;5.53;100.00
22206;BME280;11272;50.104;8.754;2022-11-20T11:12:51;100159.00;;;5.47;100.00
22206;BME280;11272;50.104;8.754;2022-11-20T11:15:39;100154.63;;;5.49;100.00
22206;BME280;11272;50.104;8.754;2022-11-20T11:18:09;100143.19;;;5.48;100.00
22206;BME280;11272;50.104;8.754;2022-11-20T11:20:34;100159.84;;;5.52;100.00
22206;BME280;11272;50.104;8.754;2022-11-20T11:23:00;100158.09;;;5.53;100.00
22206;BME280;11272;50.104;8.754;2022-11-20T11:25:35;100152.81;;;5.53;100.00
22206;BME280;11272;50.104;8.754;2022-11-20T11:28:04;100151.91;;;5.57;100.00
22206;BME280;11272;50.104;8.754;2022-11-20T11:30:41;100152.78;;;5.59;100.00
22206;BME280;11272;50.104;8.754;2022-11-20T11:33:18;100144.84;;;5.63;100.00
22206;BME280;11272;50.104;8.754;2022-11-20T11:35:47;100142.19;;;5.68;100.00
22206;BME280;11272;50.104;8.754;2022-11-20T11:40:54;100134.28;;;5.71;100.00
22206;BME280;11272;50.104;8.754;2022-11-20T11:43:35;100135.13;;;5.73;100.00
22206;BME280;11272;50.104;8.754;2022-11-20T11:49:11;100133.34;;;5.79;100.00
22206;BME280;11272;50.104;8.754;2022-11-20T11:51:56;100128.91;;;5.90;100.00
22206;BME280;11272;50.104;8.754;2022-11-20T11:54:43;100120.03;;;5.99;100.00
22206;BME280;11272;50.104;8.754;2022-11-20T12:02:55;100112.91;;;6.13;100.00
22206;BME280;11272;50.104;8.754;2022-11-20T12:05:28;100113.69;;;6.20;100.00
22206;BME280;11272;50.104;8.754;2022-11-20T12:10:49;100108.41;;;6.24;100.00
22206;BME280;11272;50.104;8.754;2022-11-20T12:13:30;100104.84;;;6.30;100.00
22206;BME280;11272;50.104;8.754;2022-11-20T12:16:02;100105.69;;;6.32;100.00
22206;BME280;11272;50.104;8.754;2022-11-20T12:18:28;100102.97;;;6.41;100.00
22206;BME280;11272;50.104;8.754;2022-11-20T12:23:48;100089.63;;;6.56;100.00
22206;BME280;11272;50.104;8.754;2022-11-20T12:27:01;100090.41;;;6.63;100.00
22206;BME280;11272;50.104;8.754;2022-11-20T12:30:01;100101.88;;;6.62;100.00
22206;BME280;11272;50.104;8.754;2022-11-20T12:35:28;100095.84;;;6.51;100.00
22206;BME280;11272;50.104;8.754;2022-11-20T12:43:44;100098.50;;;6.49;100.00
22206;BME280;11272;50.104;8.754;2022-11-20T12:46:42;100095.03;;;6.44;100.00
22206;BME280;11272;50.104;8.754;2022-11-20T12:57:09;100097.84;;;6.27;100.00
22206;BME280;11272;50.104;8.754;2022-11-20T13:05:27;100083.03;;;6.11;100.00
22206;BME280;11272;50.104;8.754;2022-11-20T13:07:57;100084.81;;;6.09;100.00
22206;BME280;11272;50.104;8.754;2022-11-20T13:10:38;100085.78;;;6.02;100.00
22206;BME280;11272;50.104;8.754;2022-11-20T13:16:06;100071.72;;;6.00;100.00
22206;BME280;11272;50.104;8.754;2022-11-20T13:18:38;100067.38;;;5.98;100.00
22206;BME280;11272;50.104;8.754;2022-11-20T13:21:36;100067.44;;;5.88;100.00
22206;BME280;11272;50.104;8.754;2022-11-20T13:24:06;100064.81;;;5.85;100.00
22206;BME280;11272;50.104;8.754;2022-11-20T13:26:35;100067.44;;;5.82;100.00
22206;BME280;11272;50.104;8.754;2022-11-20T13:29:20;100054.28;;;5.82;100.00
22206;BME280;11272;50.104;8.754;2022-11-20T13:31:47;100058.69;;;5.79;100.00
22206;BME280;11272;50.104;8.754;2022-11-20T13:34:23;100051.72;;;5.73;100.00
22206;BME280;11272;50.104;8.754;2022-11-20T13:36:57;100047.38;;;5.71;100.00
22206;BME280;11272;50.104;8.754;2022-11-20T13:39:34;100035.94;;;5.70;100.00
22206;BME280;11272;50.104;8.754;2022-11-20T13:44:42;100042.97;;;5.71;100.00
22206;BME280;11272;50.104;8.754;2022-11-20T13:47:24;100029.78;;;5.73;100.00
22206;BME280;11272;50.104;8.754;2022-11-20T13:49:57;100033.28;;;5.75;100.00
22206;BME280;11272;50.104;8.754;2022-11-20T13:58:07;100030.69;;;5.70;100.00
22206;BME280;11272;50.104;8.754;2022-11-20T14:00:51;100029.78;;;5.73;100.00
22206;BME280;11272;50.104;8.754;2022-11-20T14:03:22;100028.88;;;5.75;100.00
22206;BME280;11272;50.104;8.754;2022-11-20T14:06:00;100034.16;;;5.75;100.00
22206;BME280;11272;50.104;8.754;2022-11-20T14:08:45;100033.28;;;5.75;100.00
22206;BME280;11272;50.104;8.754;2022-11-20T14:11:22;100027.09;;;5.77;100.00
22206;BME280;11272;50.104;8.754;2022-11-20T14:14:13;100028.84;;;5.78;100.00
22206;BME280;11272;50.104;8.754;2022-11-20T14:16:43;100024.44;;;5.80;100.00
22206;BME280;11272;50.104;8.754;2022-11-20T14:21:45;100021.75;;;5.88;100.00
22206;BME280;11272;50.104;8.754;2022-11-20T14:24:12;100014.72;;;5.88;100.00
22206;BME280;11272;50.104;8.754;2022-11-20T14:26:42;100007.69;;;5.90;100.00
22206;BME280;11272;50.104;8.754;2022-11-20T14:29:29;99998.88;;;5.95;100.00
22206;BME280;11272;50.104;8.754;2022-11-20T14:31:56;99994.47;;;5.97;100.00
22206;BME280;11272;50.104;8.754;2022-11-20T14:34:27;99994.47;;;5.98;100.00
22206;BME280;11272;50.104;8.754;2022-11-20T14:37:23;99990.03;;;6.02;100.00
22206;BME280;11272;50.104;8.754;2022-11-20T14:39:55;99988.22;;;6.04;100.00
22206;BME280;11272;50.104;8.754;2022-11-20T14:42:24;99992.63;;;6.05;100.00
22206;BME280;11272;50.104;8.754;2022-11-20T14:44:55;99985.53;;;6.10;100.00
22206;BME280;11272;50.104;8.754;2022-11-20T14:47:34;99974.13;;;6.09;100.00
22206;BME280;11272;50.104;8.754;2022-11-20T14:50:00;99978.50;;;6.10;100.00
22206;BME280;11272;50.104;8.754;2022-11-20T14:52:27;99985.50;;;6.14;100.00
22206;BME280;11272;50.104;8.754;2022-11-20T14:54:55;99969.66;;;6.17;100.00
22206;BME280;11272;50.104;8.754;2022-11-20T14:57:32;99981.06;;;6.19;100.00
22206;BME280;11272;50.104;8.754;2022-11-20T15:00:21;99986.34;;;6.19;100.00
22206;BME280;11272;50.104;8.754;2022-11-20T15:02:50;99962.59;;;6.19;100.00
22206;BME280;11272;50.104;8.754;2022-11-20T15:05:19;99962.56;;;6.21;100.00
22206;BME280;11272;50.104;8.754;2022-11-20T15:07:47;99957.28;;;6.21;100.00